createdAt,value
2019-02-15T00:00:42.161Z,89.50
2019-02-15T00:03:10.574Z,89.40
2019-02-15T00:05:39.920Z,89.30
2019-02-15T00:08:08.948Z,89.30
2019-02-15T00:10:39.475Z,89.40
2019-02-15T00:13:13.681Z,89.40
2019-02-15T00:15:59.881Z,89.30
2019-02-15T00:18:30.257Z,89.30
2019-02-15T00:21:03.980Z,89.30
2019-02-15T00:23:32.351Z,89.40
2019-02-15T00:26:00.756Z,89.70
2019-02-15T00:28:29.391Z,89.40
2019-02-15T00:30:58.419Z,89.80
2019-02-15T00:33:27.595Z,89.00
2019-02-15T00:35:56.040Z,90.00
2019-02-15T00:38:24.423Z,90.50
2019-02-15T00:40:53.433Z,90.20
2019-02-15T00:43:22.493Z,89.90
2019-02-15T00:45:53.781Z,89.80
2019-02-15T00:48:24.378Z,89.70
2019-02-15T00:50:57.355Z,89.70
2019-02-15T01:04:47.083Z,90.40
2019-02-15T01:07:33.319Z,90.10
2019-02-15T01:10:03.658Z,90.40
2019-02-15T01:12:33.977Z,90.10
2019-02-15T01:15:03.216Z,90.00
2019-02-15T01:17:31.602Z,90.20
2019-02-15T01:20:00.007Z,90.10
2019-02-15T01:22:28.391Z,90.00
2019-02-15T01:24:56.780Z,90.00
2019-02-15T01:27:26.792Z,90.30
2019-02-15T01:30:13.955Z,90.30
2019-02-15T01:35:25.907Z,90.30
2019-02-15T01:37:56.000Z,90.10
2019-02-15T01:40:29.034Z,90.00
2019-02-15T01:48:36.766Z,90.60
2019-02-15T01:51:05.847Z,90.50
2019-02-15T01:53:34.391Z,90.60
2019-02-15T01:56:02.799Z,90.60
2019-02-15T01:58:31.315Z,90.70
2019-02-15T02:00:59.776Z,90.70
2019-02-15T02:03:28.287Z,90.70
2019-02-15T02:05:56.731Z,90.70
2019-02-15T02:08:26.091Z,90.60
2019-02-15T02:10:54.691Z,90.60
2019-02-15T02:13:23.272Z,90.90
2019-02-15T02:15:52.427Z,90.70
2019-02-15T02:21:08.245Z,90.50
2019-02-15T02:23:36.746Z,91.00
2019-02-15T02:26:05.289Z,90.90
2019-02-15T02:28:35.428Z,90.80
2019-02-15T02:31:06.341Z,90.90
2019-02-15T02:33:34.949Z,90.90
2019-02-15T02:36:03.640Z,90.90
2019-02-15T02:38:32.149Z,90.80
2019-02-15T02:41:00.653Z,91.00
2019-02-15T02:43:29.792Z,91.00
2019-02-15T02:45:58.438Z,90.90
2019-02-15T02:48:29.080Z,91.00
2019-02-15T02:50:58.202Z,91.00
2019-02-15T02:53:28.970Z,91.00
2019-02-15T02:55:58.070Z,91.00
2019-02-15T02:58:27.098Z,91.10
2019-02-15T03:00:56.088Z,91.20
2019-02-15T03:03:25.197Z,91.20
2019-02-15T03:05:53.778Z,91.20
2019-02-15T03:08:22.256Z,91.10
2019-02-15T03:10:54.344Z,91.10
2019-02-15T03:13:25.927Z,91.00
2019-02-15T03:15:54.461Z,91.10
2019-02-15T03:18:23.329Z,91.20
2019-02-15T03:20:53.068Z,92.00
2019-02-15T03:23:21.689Z,91.20
2019-02-15T03:25:50.349Z,91.30
2019-02-15T03:28:18.834Z,91.20
2019-02-15T03:30:47.374Z,91.20
2019-02-15T03:33:17.013Z,91.10
2019-02-15T03:36:02.376Z,91.10
2019-02-15T03:38:35.475Z,91.20
2019-02-15T03:41:05.577Z,91.30
2019-02-15T03:43:34.126Z,91.10
2019-02-15T03:46:04.733Z,91.10
2019-02-15T04:11:17.778Z,91.70
2019-02-15T04:13:46.199Z,91.50
2019-02-15T04:16:15.188Z,91.50
2019-02-15T04:18:44.366Z,91.40
2019-02-15T04:21:13.024Z,91.30
2019-02-15T05:59:56.419Z,91.30
2019-02-15T06:31:19.765Z,91.70
2019-02-15T06:43:18.301Z,91.80
2019-02-15T08:12:42.100Z,81.90
2019-02-15T08:15:10.936Z,67.40
2019-02-15T08:17:39.997Z,61.90
2019-02-15T08:20:10.699Z,52.00
2019-02-15T08:22:39.093Z,46.80
2019-02-15T08:25:08.696Z,42.90
2019-02-15T08:27:37.086Z,46.10
2019-02-15T08:30:08.448Z,43.10
2019-02-15T08:32:37.109Z,43.40
2019-02-15T08:35:07.924Z,43.60
2019-02-15T08:37:36.322Z,44.60
2019-02-15T08:40:07.681Z,42.60
2019-02-15T08:42:36.348Z,43.30
2019-02-15T08:45:08.210Z,43.10
2019-02-15T08:47:37.389Z,41.40
2019-02-15T08:50:09.452Z,42.20
2019-02-15T08:52:38.252Z,39.90
2019-02-15T08:55:09.250Z,40.00
2019-02-15T08:57:37.623Z,37.00
2019-02-15T09:00:09.848Z,35.10
2019-02-15T09:02:38.211Z,31.90
2019-02-15T09:05:08.914Z,32.60
2019-02-15T09:07:37.324Z,32.00
2019-02-15T09:10:09.091Z,32.90
2019-02-15T09:12:37.492Z,32.10
2019-02-15T09:15:11.677Z,31.80
2019-02-15T09:17:40.218Z,33.60
2019-02-15T09:20:10.955Z,32.20
2019-02-15T09:22:40.095Z,29.40
2019-02-15T09:25:12.785Z,29.60
2019-02-15T09:27:48.095Z,30.00
2019-02-15T09:33:18.979Z,28.60
2019-02-15T09:35:47.353Z,29.20
2019-02-15T09:38:15.723Z,28.80
2019-02-15T09:40:45.022Z,28.30
2019-02-15T09:43:13.961Z,27.60
2019-02-15T09:45:43.144Z,26.90
2019-02-15T09:48:11.511Z,26.50
2019-02-15T09:50:39.880Z,25.70
2019-02-15T09:53:08.292Z,27.10
2019-02-15T09:55:36.668Z,25.30
2019-02-15T09:58:05.080Z,26.40
2019-02-15T10:00:34.125Z,25.60
2019-02-15T10:03:02.494Z,26.30
2019-02-15T10:05:30.890Z,27.10
2019-02-15T10:07:59.271Z,27.80
2019-02-15T10:10:28.036Z,28.60
2019-02-15T10:12:56.384Z,27.50
2019-02-15T10:15:24.746Z,27.10
2019-02-15T10:17:53.152Z,26.80
2019-02-15T10:20:21.552Z,28.20
2019-02-15T10:22:49.915Z,28.70
2019-02-15T10:25:18.335Z,28.70
2019-02-15T10:27:46.710Z,28.20
2019-02-15T10:30:15.105Z,28.40
2019-02-15T10:32:43.464Z,29.40
2019-02-15T10:35:11.836Z,28.50
2019-02-15T10:37:41.008Z,29.60
2019-02-15T10:40:10.927Z,32.30
2019-02-15T10:42:39.291Z,33.20
2019-02-15T10:45:12.065Z,33.70
2019-02-15T10:47:40.740Z,35.00
2019-02-15T10:50:10.841Z,38.50
2019-02-15T10:52:39.549Z,38.60
2019-02-15T10:55:08.863Z,41.30
2019-02-15T10:57:38.010Z,40.30
2019-02-15T11:00:19.166Z,42.70
2019-02-15T11:02:47.524Z,44.50
2019-02-15T11:05:17.202Z,42.60
2019-02-15T11:07:46.311Z,42.60
2019-02-15T11:10:14.686Z,40.80
2019-02-15T11:12:43.019Z,41.40
2019-02-15T11:15:18.396Z,39.80
2019-02-15T11:17:46.792Z,40.10
2019-02-15T11:20:17.424Z,40.50
2019-02-15T11:22:45.795Z,42.10
2019-02-15T11:25:14.183Z,39.20
2019-02-15T11:27:42.555Z,39.50
2019-02-15T11:30:13.616Z,39.50
2019-02-15T11:32:42.046Z,42.50
2019-02-15T11:35:12.043Z,39.40
2019-02-15T11:37:40.763Z,38.60
2019-02-15T11:40:11.797Z,38.50
2019-02-15T11:42:40.199Z,38.70
2019-02-15T11:45:11.131Z,37.60
2019-02-15T11:47:39.498Z,38.40
2019-02-15T11:50:12.723Z,37.70
2019-02-15T11:52:41.672Z,37.50
2019-02-15T11:55:10.786Z,37.80
2019-02-15T11:57:39.143Z,37.00
2019-02-15T12:02:56.683Z,36.00
2019-02-15T12:05:26.411Z,34.80
2019-02-15T12:07:55.440Z,36.30
2019-02-15T12:10:24.477Z,34.10
2019-02-15T12:12:54.134Z,34.40
2019-02-15T12:15:23.496Z,34.60
2019-02-15T12:17:52.054Z,35.80
2019-02-15T12:20:20.411Z,36.20
2019-02-15T12:22:49.443Z,36.30
2019-02-15T12:25:17.825Z,36.20
2019-02-15T12:27:46.195Z,35.50
2019-02-15T12:30:18.262Z,35.10
2019-02-15T12:32:46.808Z,34.80
2019-02-15T12:35:15.427Z,35.40
2019-02-15T12:37:44.728Z,35.40
2019-02-15T12:40:13.163Z,36.60
2019-02-15T12:42:41.622Z,35.30
2019-02-15T12:45:16.583Z,36.20
2019-02-15T12:47:44.966Z,35.80
2019-02-15T12:50:39.873Z,37.60
2019-02-15T12:53:08.299Z,36.10
2019-02-15T12:55:39.256Z,35.00
2019-02-15T12:58:07.677Z,35.40
2019-02-15T13:00:36.050Z,35.70
2019-02-15T13:03:04.538Z,36.20
2019-02-15T13:05:32.888Z,35.20
2019-02-15T13:08:01.960Z,37.00
2019-02-15T13:10:32.007Z,35.20
2019-02-15T13:13:00.625Z,35.40
2019-02-15T13:15:29.011Z,36.90
2019-02-15T13:17:57.390Z,36.30
2019-02-15T13:20:25.935Z,36.60
2019-02-15T13:22:54.361Z,37.30
2019-02-15T13:25:22.821Z,36.10
2019-02-15T13:27:51.192Z,35.30
2019-02-15T13:30:19.600Z,34.80
2019-02-15T13:32:48.641Z,36.00
2019-02-15T13:35:22.665Z,36.20
2019-02-15T13:37:52.710Z,34.90
2019-02-15T13:40:21.142Z,34.60
2019-02-15T13:42:50.203Z,33.70
2019-02-15T13:45:18.551Z,32.70
2019-02-15T13:47:47.341Z,31.80
2019-02-15T13:50:16.363Z,31.60
2019-02-15T13:52:44.742Z,32.80
2019-02-15T13:55:13.204Z,32.60
2019-02-15T13:57:41.557Z,31.30
2019-02-15T14:00:14.539Z,31.40
2019-02-15T14:02:43.604Z,31.40
2019-02-15T14:05:12.616Z,32.00
2019-02-15T14:07:40.995Z,32.90
2019-02-15T14:10:14.320Z,32.60
2019-02-15T14:12:42.696Z,31.50
2019-02-15T14:15:11.646Z,32.90
2019-02-15T14:17:45.292Z,31.90
2019-02-15T14:20:12.364Z,32.50
2019-02-15T14:22:40.756Z,33.20
2019-02-15T14:25:13.716Z,32.10
2019-02-15T14:27:42.214Z,32.10
2019-02-15T14:30:31.640Z,31.90
2019-02-15T14:33:00.011Z,31.90
2019-02-15T14:35:28.452Z,32.70
2019-02-15T14:37:56.854Z,33.20
2019-02-15T14:40:25.918Z,32.60
2019-02-15T14:42:54.554Z,33.60
2019-02-15T14:45:23.852Z,33.60
2019-02-15T14:47:54.862Z,34.10
2019-02-15T14:50:22.267Z,34.20
2019-02-15T14:52:51.642Z,35.00
2019-02-15T14:55:20.831Z,34.20
2019-02-15T14:57:49.199Z,33.50
2019-02-15T15:00:17.623Z,33.70
2019-02-15T15:02:45.993Z,34.20
2019-02-15T15:05:14.355Z,34.60
2019-02-15T15:07:42.762Z,34.30
2019-02-15T15:10:11.531Z,34.10
2019-02-15T15:12:40.058Z,34.60
2019-02-15T15:15:13.408Z,35.90
2019-02-15T15:17:42.073Z,35.10
2019-02-15T15:20:11.942Z,34.60
2019-02-15T15:22:40.370Z,35.00
2019-02-15T15:25:15.621Z,35.30
2019-02-15T15:27:44.007Z,35.40
2019-02-15T15:30:13.923Z,36.00
2019-02-15T15:32:43.621Z,36.20
2019-02-15T15:35:12.317Z,36.40
2019-02-15T15:37:40.743Z,36.90
2019-02-15T15:40:12.162Z,37.40
2019-02-15T15:42:40.522Z,37.70
2019-02-15T15:45:10.703Z,37.90
2019-02-15T15:47:39.101Z,38.00
2019-02-15T15:50:09.798Z,39.20
2019-02-15T15:52:38.218Z,38.80
2019-02-15T15:55:09.175Z,39.10
2019-02-15T15:57:37.559Z,39.50
2019-02-15T16:00:08.986Z,40.10
2019-02-15T16:02:37.709Z,40.50
2019-02-15T16:05:07.522Z,41.10
2019-02-15T16:07:35.910Z,41.60
2019-02-15T16:10:09.840Z,42.30
2019-02-15T16:12:38.891Z,42.80
2019-02-15T16:15:11.935Z,43.60
2019-02-15T16:17:40.290Z,44.10
2019-02-15T16:20:10.731Z,45.00
2019-02-15T16:22:39.164Z,44.90
2019-02-15T16:25:09.391Z,46.30
2019-02-15T16:27:37.891Z,47.30
2019-02-15T16:30:12.224Z,47.70
2019-02-15T16:32:40.735Z,48.00
2019-02-15T16:35:09.491Z,48.70
2019-02-15T16:37:38.101Z,49.20
2019-02-15T16:40:11.676Z,50.00
2019-02-15T16:42:39.514Z,50.40
2019-02-15T16:45:10.727Z,51.30
2019-02-15T16:47:39.858Z,51.80
2019-02-15T16:50:08.750Z,52.10
2019-02-15T16:52:37.780Z,52.90
2019-02-15T16:55:12.892Z,53.10
2019-02-15T16:57:38.436Z,53.70
2019-02-15T17:00:14.743Z,54.20
2019-02-15T17:02:43.099Z,54.40
2019-02-15T17:05:11.630Z,55.10
2019-02-15T17:07:40.016Z,55.30
2019-02-15T17:10:09.845Z,56.80
2019-02-15T17:12:38.229Z,56.70
2019-02-15T17:15:09.855Z,57.30
2019-02-15T17:17:39.001Z,57.70
2019-02-15T17:20:09.139Z,58.20
2019-02-15T17:22:37.770Z,59.50
2019-02-15T17:25:09.280Z,59.60
2019-02-15T17:27:37.813Z,60.20
2019-02-15T17:30:31.500Z,60.30
2019-02-15T17:32:59.871Z,60.70
2019-02-15T17:35:28.990Z,61.60
2019-02-15T17:37:59.072Z,61.90
2019-02-15T17:40:27.573Z,63.20
2019-02-15T17:42:58.505Z,63.40
2019-02-15T17:45:27.321Z,64.70
2019-02-15T17:47:56.214Z,63.90
2019-02-15T17:50:25.030Z,64.20
2019-02-15T17:52:53.486Z,65.60
2019-02-15T17:55:22.049Z,65.30
2019-02-15T17:57:50.494Z,65.30
2019-02-15T18:00:20.501Z,65.90
2019-02-15T18:02:48.932Z,66.10
2019-02-15T18:05:17.988Z,66.80
2019-02-15T18:07:51.809Z,66.90
2019-02-15T18:10:21.740Z,67.60
2019-02-15T18:12:50.495Z,67.70
2019-02-15T18:15:19.216Z,68.30
2019-02-15T18:17:48.534Z,69.60
2019-02-15T18:20:16.919Z,69.80
2019-02-15T18:22:46.814Z,69.60
2019-02-15T18:25:15.548Z,69.50
2019-02-15T18:28:03.627Z,70.50
2019-02-15T18:30:31.298Z,71.40
2019-02-15T18:32:59.681Z,71.70
2019-02-15T18:35:28.106Z,71.20
2019-02-15T18:37:57.053Z,71.50
2019-02-15T18:40:25.415Z,71.70
2019-02-15T18:42:53.831Z,72.80
2019-02-15T18:45:22.501Z,73.00
2019-02-15T18:47:51.811Z,73.50
2019-02-15T18:50:20.551Z,73.10
2019-02-15T18:52:49.222Z,73.80
2019-02-15T18:55:18.702Z,74.70
2019-02-15T18:57:48.376Z,74.80
2019-02-15T19:00:18.213Z,75.10
2019-02-15T19:02:49.260Z,75.80
2019-02-15T19:05:17.964Z,75.50
2019-02-15T19:07:46.632Z,76.10
2019-02-15T19:10:18.251Z,76.00
2019-02-15T19:12:47.381Z,77.40
2019-02-15T19:15:16.805Z,76.80
2019-02-15T19:17:45.538Z,77.00
2019-02-15T19:20:15.645Z,76.90
2019-02-15T19:22:44.364Z,77.40
2019-02-15T19:25:15.440Z,77.60
2019-02-15T19:27:44.190Z,77.70
2019-02-15T19:30:39.902Z,78.00
2019-02-15T19:33:08.605Z,78.10
2019-02-15T19:35:36.991Z,78.20
2019-02-15T19:38:05.354Z,78.30
2019-02-15T19:40:34.602Z,79.60
2019-02-15T19:43:06.281Z,79.10
2019-02-15T19:45:35.634Z,80.20
2019-02-15T19:48:04.727Z,79.90
2019-02-15T19:50:33.101Z,79.60
2019-02-15T19:53:02.255Z,80.00
2019-02-15T19:55:30.760Z,79.90
2019-02-15T19:57:59.184Z,80.30
2019-02-15T20:00:28.113Z,80.50
2019-02-15T20:02:56.742Z,80.80
2019-02-15T20:05:25.972Z,81.30
2019-02-15T20:07:55.030Z,82.00
2019-02-15T20:10:24.059Z,82.30
2019-02-15T20:12:52.596Z,82.20
2019-02-15T20:15:21.650Z,82.30
2019-02-15T20:17:51.622Z,81.90
2019-02-15T20:20:20.020Z,82.10
2019-02-15T20:22:48.664Z,82.10
2019-02-15T20:25:17.523Z,82.40
2019-02-15T20:27:45.923Z,82.40
2019-02-15T20:30:35.476Z,82.10
2019-02-15T20:33:04.491Z,81.90
2019-02-15T20:35:32.813Z,82.30
2019-02-15T20:38:01.183Z,82.60
2019-02-15T20:40:29.717Z,82.90
2019-02-15T20:42:59.242Z,83.50
2019-02-15T20:45:28.835Z,83.70
2019-02-15T20:47:58.567Z,83.50
2019-02-15T20:50:26.943Z,84.40
2019-02-15T20:52:55.319Z,83.80
2019-02-15T20:55:26.048Z,84.20
2019-02-15T20:57:55.283Z,85.00
2019-02-15T21:00:45.825Z,84.40
2019-02-15T21:03:14.753Z,84.40
2019-02-15T21:05:43.125Z,84.90
2019-02-15T21:08:11.976Z,86.50
2019-02-15T21:10:40.637Z,87.00
2019-02-15T21:13:09.373Z,87.60
2019-02-15T21:15:40.082Z,87.40
2019-02-15T21:18:10.173Z,87.50
2019-02-15T21:20:38.914Z,87.40
2019-02-15T21:23:28.378Z,87.70
2019-02-15T21:25:57.111Z,88.40
2019-02-15T21:28:25.947Z,88.10
2019-02-15T21:30:55.089Z,87.30
2019-02-15T21:33:24.050Z,87.20
2019-02-15T21:35:52.806Z,86.70
2019-02-15T21:38:21.561Z,86.20
2019-02-15T21:40:51.627Z,86.10
2019-02-15T21:43:20.398Z,86.80
2019-02-15T21:45:49.444Z,86.70
2019-02-15T21:48:18.839Z,86.90
2019-02-15T21:50:48.253Z,85.80
2019-02-15T21:53:17.459Z,85.90
2019-02-15T21:55:46.087Z,84.80
2019-02-15T21:58:14.775Z,85.40
2019-02-15T22:00:43.133Z,84.80
2019-02-15T22:03:11.528Z,84.00
2019-02-15T22:05:39.891Z,84.70
2019-02-15T22:08:08.259Z,84.20
2019-02-15T22:10:57.728Z,84.40
2019-02-15T22:13:28.442Z,83.80
2019-02-15T22:15:56.830Z,84.30
2019-02-15T22:18:25.451Z,84.10
2019-02-15T22:20:53.848Z,84.70
2019-02-15T22:23:22.512Z,84.50
2019-02-15T22:25:50.880Z,84.20
2019-02-15T22:28:19.575Z,84.60
2019-02-15T22:30:48.777Z,83.70
2019-02-15T22:33:17.171Z,83.50
2019-02-15T22:35:45.835Z,83.30
2019-02-15T22:38:14.209Z,82.80
2019-02-15T22:40:42.652Z,83.20
2019-02-15T22:43:14.453Z,81.80
2019-02-15T22:45:43.581Z,81.20
2019-02-15T22:48:11.974Z,80.10
2019-02-15T22:50:40.341Z,80.10
2019-02-15T22:53:28.168Z,79.20
2019-02-15T22:55:56.519Z,79.60
2019-02-15T22:58:24.891Z,79.20
2019-02-15T23:01:26.640Z,79.10
2019-02-15T23:03:55.010Z,78.60
2019-02-15T23:06:23.391Z,78.30
2019-02-15T23:08:51.747Z,78.50
2019-02-15T23:11:20.122Z,78.50
2019-02-15T23:13:48.508Z,78.50
2019-02-15T23:16:18.014Z,78.40
2019-02-15T23:18:46.727Z,78.50
2019-02-15T23:21:15.090Z,79.10
2019-02-15T23:23:43.791Z,80.00
2019-02-15T23:26:12.170Z,79.90
2019-02-15T23:28:40.856Z,79.30
2019-02-15T23:31:09.227Z,79.50
2019-02-15T23:33:37.611Z,79.70
2019-02-15T23:36:07.311Z,80.00
2019-02-15T23:38:35.716Z,80.10
2019-02-15T23:41:04.850Z,80.50
2019-02-15T23:43:33.208Z,80.90
2019-02-15T23:46:02.312Z,80.70
2019-02-15T23:48:30.655Z,80.50
2019-02-15T23:50:59.940Z,79.70
2019-02-15T23:53:28.904Z,78.90
2019-02-15T23:55:57.277Z,77.80
2019-02-15T23:58:25.649Z,76.20
